AirNav   Everest Fuels
 
 791 users online  

4G5 Monroe County Airport
Woodsfield, Ohio, USA

GOING TO WOODSFIELD?


FAA INFORMATION EFFECTIVE 28 FEBRUARY 2019

Location

FAA Identifier: 4G5
Lat/Long: 39-46-44.5837N / 081-06-10.0084W
39-46.743062N / 081-06.166807W
39.7790510 / -81.1027801
(estimated)
Elevation: 1197 ft. / 364.8 m (surveyed)
Variation: 08W (2015)
From city: 1 mile N of WOODSFIELD, OH
Time zone: UTC -5 (UTC -4 during Daylight Saving Time)
Zip code: 43793

Airport Operations

Airport use: Open to the public
Activation date: 03/1969
Control tower: no
ARTCC: CLEVELAND CENTER
FSS: CLEVELAND FLIGHT SERVICE STATION
NOTAMs facility: CLE (NOTAM-D service available)
Attendance: IREG
Wind indicator: lighted
Segmented circle: no
Lights: ACTVT MIRL RY 07/25; AND REIL RY 25 - CTAF.
Beacon: white-green (lighted land airport)
Operates sunset to sunrise.

Airport Communications

CTAF/UNICOM: 122.8
WX AWOS-3 at MPG (18 nm E): 119.05 (304-845-2959)
  • APCH/DEP SERVICE PROVIDED BY CLEVELAND ARTCC ON FREQS 126.95/239.30 (BELMONT RCAG).

Nearby radio navigation aids

VOR radial/distance  VOR name  Freq  Var
AIRr230/19.4BELLAIRE VOR/DME117.1007W
JPUr035/23.9PARKERSBURG VOR/DME108.6003W
CTWr155/32.0NEWCOMERSTOWN VOR/DME111.8007W
ZZVr111/37.6ZANESVILLE VOR/DME114.9506W
HLGr227/37.9WHEELING VOR/DME112.2007W

 
NDB name  Hdg/Dist  Freq  Var  ID
CADIZ196/27.823907WCFX -.-. ..-. -..-

Airport Services

Fuel available: 100LL JET-A+
AFTR HRS CTC MANAGER FOR FUEL 740-213-3106
Parking: tiedowns
Airframe service: NONE
Powerplant service: NONE
Bottled oxygen: NONE
Bulk oxygen: NONE

Runway Information

Runway 7/25

Dimensions: 3805 x 75 ft. / 1160 x 23 m
Surface: asphalt, in fair condition
Weight bearing capacity: 
Single wheel: 18.0
Runway edge lights: medium intensity
Runway edge markings: RWY 07/25 MKG FADED
RUNWAY 7  RUNWAY 25
Latitude: 39-46.615640N39-46.870463N
Longitude: 081-06.537868W081-05.795722W
Elevation: 1193.8 ft.1190.4 ft.
Gradient: 0.2%0.2%
Traffic pattern: leftleft
Runway heading: 074 magnetic, 066 true254 magnetic, 246 true
Displaced threshold: 173 ft.no
Markings: nonprecision, in poor conditionnonprecision, in poor condition
Runway end identifier lights: yes
Touchdown point: yes, no lightsyes, no lights
Obstructions: 45 ft. trees, 650 ft. from runway, 270 ft. right of centerline, 10:1 slope to clear
RWY 07 APCH RATIO 18:1 TO DSPLCD THLD
10 ft. trees, 201 ft. from runway, 175 ft. left of centerline
0-10 FT TREES & BRUSH 80 FT -TO- 200 FT FM RWY 145 FT -TO- 250 FT L

Airport Ownership and Management from official FAA records

Ownership: Publicly-owned
Owner: COUNTY CMSN
101 N. MAIN ST.
WOODSFIELD, OH 43793
Phone 740-472-1341
Manager: DAVID DALRYMPLE
47073 STATE RTE 26
WOODSFIELD, OH 43793
Phone 740-472-1882
ADNL CTC: MONROECOUNTYAIRPORT@YAHOO.COM / 740-213-3106

Airport Operational Statistics

Aircraft based on the field: 12
Single engine airplanes: 11
Ultralights: 1
    
Aircraft operations: avg 83/week *
58% local general aviation
14% military
14% transient general aviation
14% air taxi
* for 12-month period ending 06 September 2018

Additional Remarks

OCCL DEER BIRDS & OTHER WILDLIFE ON & INVOF ARPT.

Instrument Procedures

NOTE: All procedures below are presented as PDF files. If you need a reader for these files, you should download the free Adobe Reader.

NOT FOR NAVIGATION. Please procure official charts for flight.
FAA instrument procedures published for use from 28 February 2019 at 0901Z to 28 March 2019 at 0900Z.

 
IAPs - Instrument Approach Procedures
RNAV (GPS) RWY 25   download (248KB)
VOR/DME RWY 25   download (170KB)
NOTE: Special Take-Off Minimums/Departure Procedures apply   download (164KB)

Other nearby airports with instrument procedures:

6G5 - Barnesville-Bradfield Airport (14 nm N)
2P7 - Alderman Airport (18 nm N)
KMPG - Marshall County Airport (18 nm E)
I10 - Noble County Airport (20 nm W)
KCDI - Cambridge Municipal Airport (25 nm NW)
 
Loc | Ops | Rwys | IFR | FBO | Links
Com | Nav | Svcs | Stats | Notes
Area around 4G5 (Monroe County Airport)
 
Road maps at: MapQuest Bing Google
 
Aerial photo
WARNING: Photo may not be current or correct
Aerial photo of 4G5 (Monroe County Airport)
Photo by John Carpenter
Photo taken 13-Nov-2010
looking west.

Do you have a better or more recent aerial photo of Monroe County Airport that you would like to share? If so, please send us your photo.

 
Sectional chart

 
Airport distance calculator
Flying to Monroe County Airport? Find the distance to fly.

From to 4G5

Sunrise and sunset
Times for 24-Mar-2019
 Local
(UTC-4)
 Zulu
(UTC)
Morning civil twilight06:5510:55
Sunrise07:2211:22
Sunset19:3923:39
Evening civil twilight20:0600:06

Current date and time
Zulu (UTC)  25-Mar-2019 02:46:56
Local (UTC-4)  24-Mar-2019 22:46:56
 
METAR
KCDI 
25nm NW 
250235Z AUTO 00000KT 10SM -DZ OVC050 07/07 A3009 RMK AO2 T00730065
KPKB 
30nm SW 
250153Z 32005KT 8SM -RA BKN050 BKN070 OVC080 12/03 A3014 RMK AO2 RAB44 SLP209 P0000 T01170028
KHLG 
31nm NE 
250153Z AUTO 26005KT 10SM OVC060 11/00 A3011 RMK AO2 PK WND 21026/0113 RAB15E32 SLP201 P0000 T01110000
KZZV 
38nm W 
250153Z AUTO 00000KT 10SM OVC055 09/04 A3009 RMK AO2 RAE50 SLP191 P0002 T00940044
KAFJ 
43nm NE 
250156Z AUTO 28013KT 10SM -RA SCT060 OVC070 11/02 A3013 RMK AO2 RAB36 SLP207 P0000 T01060017
KPHD 
44nm N 
250153Z AUTO 21004KT 10SM -RA OVC050 11/02 A3011 RMK AO2 RAB27 SLP200 P0000 T01060017
TAF
KPKB 
30nm SW 
241720Z 2418/2518 22004KT P6SM BKN150 FM242300 VRB03KT P6SM OVC060 FM250300 05003KT P6SM -SHRA OVC060 FM250500 02003KT P6SM -SHRA OVC025 FM250800 03003KT P6SM OVC015 FM251300 04004KT 4SM -SHRA OVC007
KHLG 
31nm NE 
250057Z 2501/2524 VRB05KT P6SM OVC060 TEMPO 2501/2503 24012G20KT FM251600 01008KT 5SM -RA OVC025 FM252000 02008KT P6SM SKC
NOTAMs
Click for the latest NOTAMs
NOTAMs are issued by the DoD/FAA and will open in a separate window not controlled by AirNav.

 

 
 

FBO, Fuel Providers, and Aircraft Ground Support

  
 Business Name 
 
 Contact 
 
 Services / Description 
 
Fuel Prices
 
Comments
  
 Monroe County Airport
740-472-1882 Airport management, Aviation fuel, Aircraft parking (ramp or tiedown), Hangar leasing / sales, Passenger terminal and lounge, Rental cars, Public telephone, ...

More info about Monroe County Airport
Phillips 66
100LL Jet A
FS $5.39 $4.30 
 Updated 25-Oct-2018
 
   write
FS=Full service
Update Fuel Prices
 

Would you like to see your business listed on this page?

 If your business provides an interesting product or service to pilots, flight crews, aircraft, or users of the Monroe County Airport, you should consider listing it here.  To start the listing process, click on the button below
 
Add a business
 

Other Pages about Monroe County Airport

Update a link
 
Copyright © AirNav, LLC. All rights reserved. Privacy Policy  Contact